YPQ weather

Peterborough Airport
Peterborough, Ontario, Canada

Public forecast

Using degrees Celsius for public forecast. Weather courtesy of forecast.io.

Current aviation weather report (METAR) for Peterborough Airport

Retrieved 2019/10/19 21:00 UTC (55 minutes ago):

CYPQ 192100Z AUTO 17007KT 9SM CLR 11/03 A2999 RMK SLP165

Aviation forecast (TAF) for Peterborough Airport

Retrieved 2019/10/19 20:00 UTC (2 hours ago):

TAF CYPQ 191938Z 1920/2002 15008KT P6SM SKC BECMG 1921/1923 VRB03KT RMK FCST BASED ON AUTO OBS NXT FCST WILL BE ISSUED AT 200945Z